Terminal Aerodrome Forecast
Issued by NWS

Home | Current Version | Previous Version | Text Only | Print | Product List | Glossary On
Versions: 1 2 3 4 5 6 7 8 9 10 11 12 13 14 15 16 17 18 19 20 21 22 23 24 25 26 27 28 29 30 31 32 33
000
FTUS43 KGLD 280520
TAFMCK
TAF
KMCK 280520Z 2806/2906 12009KT P6SM FEW003 BKN140
      TEMPO 2807/2808 BKN003
     FM280800 12008KT 1/2SM FG OVC003
     FM281700 10013G19KT 5SM -RA BR OVC007
     FM282200 09014G22KT 2SM RA BR SCT007 OVC015
      TEMPO 2822/2902 1SM RA BR BKN007
     FM290200 07012KT 5SM -RA BR BKN005=

USA.gov is the U.S. government's official web portal to all federal, state and local government web resources and services.